Time;durP1;ratioP1;P1;durP2;ratioP2;P2;SDS_P1;SDS_P2;PMS_P1;PMS_P2;Temp;Humidity;BMP_temperature;BMP_pressure;BME280_temperature;BME280_humidity;BME280_pressure;Samples;Min_cycle;Max_cycle;Signal;HPM_P1;HPM_P2
2022/01/14 00:00:50;;;;;;;33.05;13.63;;;;;;;;;;8366326;28;20051;-76
2022/01/14 00:04:54;;;;;;;36.45;15.48;;;;;;;;;;8366092;28;20099;-75
2022/01/14 00:09:05;;;;;;;37.72;14.50;;;;;;;;;;8366402;28;20052;-76
2022/01/14 00:13:26;;;;;;;33.30;14.00;;;;;;;;;;8366406;28;20041;-76
2022/01/14 00:17:29;;;;;;;26.20;12.40;;;;;;;;;;8366169;28;20394;-75
2022/01/14 00:21:35;;;;;;;30.38;11.68;;;;;;;;;;8365607;28;20079;-75
2022/01/14 00:34:17;;;;;;;30.80;12.27;;;;;;;;;;8365284;28;20091;-76
2022/01/14 00:38:22;;;;;;;34.35;13.55;;;;;;;;;;8364680;28;20103;-75
2022/01/14 00:42:24;;;;;;;36.25;14.88;;;;;;;;;;8365019;28;20045;-75
2022/01/14 00:46:27;;;;;;;32.88;12.95;;;;;;;;;;8364824;28;20049;-75
2022/01/14 00:50:30;;;;;;;36.17;12.65;;;;;;;;;;8364682;28;20056;-75
2022/01/14 00:54:34;;;;;;;31.38;12.52;;;;;;;;;;8364662;28;20048;-75
2022/01/14 01:02:57;;;;;;;31.65;13.18;;;;;;;;;;8364877;28;20488;-75
2022/01/14 01:07:00;;;;;;;28.00;12.80;;;;;;;;;;8364335;28;20049;-75
2022/01/14 01:11:06;;;;;;;37.25;15.13;;;;;;;;;;8363465;28;20045;-75
2022/01/14 01:15:14;;;;;;;33.28;13.02;;;;;;;;;;8361160;28;20137;-75
2022/01/14 01:19:16;;;;;;;28.48;13.95;;;;;;;;;;8362435;28;20523;-75
2022/01/14 01:23:19;;;;;;;35.95;14.30;;;;;;;;;;8363031;28;20044;-75
2022/01/14 01:27:23;;;;;;;35.35;13.38;;;;;;;;;;8362001;28;20040;-76
2022/01/14 01:31:42;;;;;;;31.55;13.88;;;;;;;;;;8362104;28;20045;-76
2022/01/14 01:35:46;;;;;;;34.90;13.48;;;;;;;;;;8362063;28;20049;-75
2022/01/14 01:39:49;;;;;;;31.40;12.70;;;;;;;;;;8361728;28;20124;-75
2022/01/14 01:43:55;;;;;;;28.60;13.40;;;;;;;;;;8362704;28;20041;-76
2022/01/14 01:47:57;;;;;;;33.47;13.27;;;;;;;;;;8365466;28;20476;-76
2022/01/14 01:52:00;;;;;;;40.75;15.38;;;;;;;;;;8368488;28;20090;-76
2022/01/14 01:56:03;;;;;;;39.47;13.02;;;;;;;;;;8369389;28;20488;-75
2022/01/14 02:00:10;;;;;;;31.10;14.23;;;;;;;;;;8369202;28;20489;-76
2022/01/14 02:04:13;;;;;;;40.05;15.65;;;;;;;;;;8367629;28;20076;-75
2022/01/14 02:08:16;;;;;;;40.08;14.38;;;;;;;;;;8367946;28;20052;-75
2022/01/14 02:12:19;;;;;;;30.92;13.65;;;;;;;;;;8368243;28;20055;-76
2022/01/14 02:16:33;;;;;;;36.42;14.23;;;;;;;;;;8368954;28;20041;-76
2022/01/14 02:25:04;;;;;;;35.28;13.32;;;;;;;;;;8366802;28;20145;-76
2022/01/14 02:29:06;;;;;;;32.35;13.20;;;;;;;;;;8366701;28;20110;-75
2022/01/14 02:33:10;;;;;;;38.10;14.75;;;;;;;;;;8365650;28;20045;-76
2022/01/14 02:37:19;;;;;;;35.78;14.32;;;;;;;;;;8368705;28;20558;-76
2022/01/14 02:41:22;;;;;;;37.65;13.38;;;;;;;;;;8367107;28;20041;-76
2022/01/14 02:45:28;;;;;;;32.50;14.07;;;;;;;;;;8366180;28;20516;-77
2022/01/14 02:49:32;;;;;;;37.60;14.57;;;;;;;;;;8367060;28;20409;-76
2022/01/14 02:53:45;;;;;;;35.00;13.45;;;;;;;;;;8349306;28;20106;-76
2022/01/14 02:57:49;;;;;;;35.08;14.60;;;;;;;;;;8368407;28;20045;-75
2022/01/14 03:01:51;;;;;;;36.10;15.95;;;;;;;;;;8367054;28;20086;-76
2022/01/14 03:05:55;;;;;;;34.25;12.45;;;;;;;;;;8365096;28;20052;-78
2022/01/14 03:09:58;;;;;;;33.90;14.90;;;;;;;;;;8367283;28;20044;-76
2022/01/14 03:14:03;;;;;;;32.80;14.43;;;;;;;;;;8368084;28;20507;-76
2022/01/14 03:18:06;;;;;;;33.08;14.55;;;;;;;;;;8367580;28;20056;-75
2022/01/14 03:22:19;;;;;;;37.17;14.25;;;;;;;;;;8367684;28;20045;-75
2022/01/14 03:26:23;;;;;;;39.60;14.52;;;;;;;;;;8368102;28;20068;-75
2022/01/14 03:30:25;;;;;;;31.63;14.40;;;;;;;;;;8367244;28;20053;-76
2022/01/14 03:34:28;;;;;;;40.38;19.02;;;;;;;;;;8367161;28;20128;-76
2022/01/14 03:38:30;;;;;;;36.97;14.40;;;;;;;;;;8367003;28;20055;-75
2022/01/14 03:42:35;;;;;;;31.65;14.32;;;;;;;;;;8367370;28;20435;-75
2022/01/14 03:46:37;;;;;;;29.27;12.13;;;;;;;;;;8367307;28;20049;-75
2022/01/14 03:50:40;;;;;;;43.97;17.30;;;;;;;;;;8366583;28;20110;-75
2022/01/14 03:54:43;;;;;;;37.05;15.55;;;;;;;;;;8366489;28;20067;-75
2022/01/14 03:58:47;;;;;;;37.78;16.20;;;;;;;;;;8366447;28;20544;-75
2022/01/14 04:02:49;;;;;;;38.45;15.13;;;;;;;;;;8367026;28;20049;-75
2022/01/14 04:06:52;;;;;;;40.83;15.57;;;;;;;;;;8366900;28;20402;-76
2022/01/14 04:10:56;;;;;;;37.75;15.68;;;;;;;;;;8365837;28;20098;-77
2022/01/14 04:19:21;;;;;;;43.70;17.67;;;;;;;;;;8365604;28;20060;-75
2022/01/14 04:23:24;;;;;;;40.10;14.52;;;;;;;;;;8366485;28;20048;-75
2022/01/14 04:27:27;;;;;;;38.08;16.98;;;;;;;;;;8365805;28;20167;-75
2022/01/14 04:31:30;;;;;;;38.17;15.88;;;;;;;;;;8365927;28;20394;-76
2022/01/14 04:35:34;;;;;;;40.10;14.90;;;;;;;;;;8365283;28;20051;-75
2022/01/14 04:39:36;;;;;;;40.42;15.85;;;;;;;;;;8365185;28;20051;-75
2022/01/14 04:43:39;;;;;;;42.30;16.40;;;;;;;;;;8365624;28;20386;-76
2022/01/14 04:47:47;;;;;;;33.95;15.13;;;;;;;;;;8365856;28;20051;-75
2022/01/14 04:51:49;;;;;;;34.20;14.32;;;;;;;;;;8364811;28;20053;-75
2022/01/14 04:55:53;;;;;;;39.22;14.82;;;;;;;;;;8365292;28;20049;-76
2022/01/14 04:59:56;;;;;;;34.90;14.73;;;;;;;;;;8364755;28;20041;-75
2022/01/14 05:04:00;;;;;;;38.40;15.98;;;;;;;;;;8364483;28;20049;-76
2022/01/14 05:08:05;;;;;;;35.05;16.15;;;;;;;;;;8364815;28;20147;-75
2022/01/14 05:12:10;;;;;;;34.28;14.40;;;;;;;;;;8364755;28;20053;-75
2022/01/14 05:16:13;;;;;;;34.00;14.43;;;;;;;;;;8364123;28;20055;-75
2022/01/14 05:20:18;;;;;;;32.38;13.65;;;;;;;;;;8364299;28;20074;-75
2022/01/14 05:24:22;;;;;;;26.40;12.57;;;;;;;;;;8363502;28;20041;-75
2022/01/14 05:28:24;;;;;;;34.20;16.33;;;;;;;;;;8363912;28;20052;-75
2022/01/14 05:32:28;;;;;;;23.27;11.13;;;;;;;;;;8364420;28;20049;-75
2022/01/14 05:36:32;;;;;;;41.80;14.35;;;;;;;;;;8363922;28;20080;-75
2022/01/14 05:40:35;;;;;;;32.83;14.45;;;;;;;;;;8364109;28;20481;-75
2022/01/14 05:44:38;;;;;;;37.10;14.10;;;;;;;;;;8364044;28;20118;-75
2022/01/14 05:48:40;;;;;;;38.88;15.10;;;;;;;;;;8363701;28;20045;-76
2022/01/14 05:52:44;;;;;;;32.40;12.77;;;;;;;;;;8363437;28;20099;-75
2022/01/14 05:56:48;;;;;;;29.60;13.00;;;;;;;;;;8363112;28;20055;-75
2022/01/14 06:00:51;;;;;;;36.95;13.57;;;;;;;;;;8363297;28;20049;-75
2022/01/14 06:04:53;;;;;;;38.53;15.57;;;;;;;;;;8363770;28;20412;-75
2022/01/14 06:08:57;;;;;;;37.17;16.20;;;;;;;;;;8363268;28;20049;-75
2022/01/14 06:13:00;;;;;;;43.30;16.52;;;;;;;;;;8363608;28;20499;-76
2022/01/14 06:17:03;;;;;;;39.70;15.07;;;;;;;;;;8335475;28;20041;-77
2022/01/14 06:21:06;;;;;;;41.22;14.45;;;;;;;;;;8362720;28;20049;-76
2022/01/14 06:25:11;;;;;;;35.60;13.38;;;;;;;;;;8362687;28;20095;-80
2022/01/14 06:29:15;;;;;;;37.58;13.52;;;;;;;;;;8363394;28;20131;-76
2022/01/14 06:33:18;;;;;;;29.95;13.60;;;;;;;;;;8364669;28;20507;-75
2022/01/14 06:37:22;;;;;;;30.80;14.85;;;;;;;;;;8368476;28;20473;-76
2022/01/14 06:41:26;;;;;;;35.75;14.93;;;;;;;;;;8369352;28;20602;-79
2022/01/14 06:45:29;;;;;;;34.90;13.70;;;;;;;;;;8369012;28;20060;-76
2022/01/14 06:49:31;;;;;;;30.58;13.85;;;;;;;;;;8368890;28;20049;-76
2022/01/14 06:53:34;;;;;;;36.38;13.57;;;;;;;;;;8368905;28;20514;-76
2022/01/14 06:57:38;;;;;;;25.70;12.00;;;;;;;;;;8368224;28;20049;-75
2022/01/14 07:01:41;;;;;;;34.28;13.88;;;;;;;;;;8368691;28;20129;-76
2022/01/14 07:05:44;;;;;;;30.35;13.10;;;;;;;;;;8367793;28;20049;-75
2022/01/14 07:09:58;;;;;;;34.13;13.65;;;;;;;;;;8367677;28;20132;-75
2022/01/14 07:14:02;;;;;;;32.60;13.02;;;;;;;;;;8356709;28;20041;-76
2022/01/14 07:18:05;;;;;;;27.25;13.35;;;;;;;;;;8367430;28;20080;-76
2022/01/14 07:22:08;;;;;;;29.80;13.45;;;;;;;;;;8367622;28;20049;-76
2022/01/14 07:26:11;;;;;;;29.83;14.52;;;;;;;;;;8367241;28;20052;-75
2022/01/14 07:30:16;;;;;;;35.70;16.50;;;;;;;;;;8367740;28;20135;-76
2022/01/14 07:34:18;;;;;;;35.55;16.40;;;;;;;;;;8367705;28;20175;-76
2022/01/14 07:38:21;;;;;;;35.78;17.15;;;;;;;;;;8367320;28;20053;-75
2022/01/14 07:42:23;;;;;;;31.17;13.70;;;;;;;;;;8367007;28;20151;-76
2022/01/14 07:46:27;;;;;;;41.65;13.32;;;;;;;;;;8366577;28;20444;-76
2022/01/14 07:50:30;;;;;;;27.67;12.30;;;;;;;;;;8366126;28;20128;-76
2022/01/14 07:54:33;;;;;;;42.00;14.80;;;;;;;;;;8367065;28;20049;-77
2022/01/14 07:58:36;;;;;;;32.53;12.23;;;;;;;;;;8362337;28;20506;-76
2022/01/14 08:02:40;;;;;;;31.08;13.60;;;;;;;;;;8364670;28;20057;-77
2022/01/14 08:06:47;;;;;;;33.35;13.38;;;;;;;;;;8366469;28;20048;-77
2022/01/14 08:10:50;;;;;;;27.42;12.05;;;;;;;;;;8366111;28;20052;-77
2022/01/14 08:14:52;;;;;;;26.13;12.32;;;;;;;;;;8365985;28;20489;-76
2022/01/14 08:18:57;;;;;;;26.30;10.40;;;;;;;;;;8365742;28;20056;-76
2022/01/14 08:23:00;;;;;;;25.35;11.13;;;;;;;;;;8365018;28;20052;-76
2022/01/14 08:27:03;;;;;;;28.63;11.73;;;;;;;;;;8364788;28;20040;-76
2022/01/14 08:31:05;;;;;;;30.75;13.80;;;;;;;;;;8365380;28;20408;-76
2022/01/14 08:35:10;;;;;;;23.38;11.18;;;;;;;;;;8364038;28;20045;-76
2022/01/14 08:39:13;;;;;;;25.13;11.18;;;;;;;;;;8365413;28;20090;-75
2022/01/14 08:43:16;;;;;;;31.15;14.07;;;;;;;;;;8365452;28;20487;-76
2022/01/14 08:47:18;;;;;;;31.70;13.50;;;;;;;;;;8363088;28;20518;-75
2022/01/14 08:51:22;;;;;;;26.30;12.05;;;;;;;;;;8359328;28;20053;-75
2022/01/14 08:55:25;;;;;;;24.30;11.23;;;;;;;;;;8363975;28;20139;-77
2022/01/14 08:59:28;;;;;;;24.88;10.82;;;;;;;;;;8361958;28;20068;-75
2022/01/14 09:03:30;;;;;;;23.88;11.13;;;;;;;;;;8360984;28;20405;-75
2022/01/14 09:07:35;;;;;;;17.33;8.90;;;;;;;;;;8360797;28;20047;-76
2022/01/14 09:11:37;;;;;;;22.52;10.60;;;;;;;;;;8357135;28;20045;-75
2022/01/14 09:15:40;;;;;;;19.65;9.10;;;;;;;;;;8361144;28;20049;-75
2022/01/14 09:19:44;;;;;;;22.33;10.40;;;;;;;;;;8353262;28;20061;-80
2022/01/14 09:23:52;;;;;;;22.40;9.65;;;;;;;;;;8360644;28;20506;-75
2022/01/14 09:27:55;;;;;;;18.48;8.40;;;;;;;;;;8360104;28;20045;-77
2022/01/14 09:31:58;;;;;;;15.77;8.13;;;;;;;;;;8331670;28;20053;-75
2022/01/14 09:36:01;;;;;;;17.70;8.15;;;;;;;;;;8329728;28;20417;-74
2022/01/14 09:40:06;;;;;;;17.17;8.50;;;;;;;;;;8329169;28;20049;-75
2022/01/14 09:44:09;;;;;;;18.65;8.10;;;;;;;;;;8329847;28;20054;-75
2022/01/14 09:48:16;;;;;;;18.77;8.80;;;;;;;;;;8330713;28;20046;-75
2022/01/14 09:52:19;;;;;;;16.77;8.98;;;;;;;;;;8330569;28;20406;-75
2022/01/14 09:56:25;;;;;;;14.70;8.05;;;;;;;;;;8331337;28;20045;-75
2022/01/14 10:00:28;;;;;;;14.48;7.43;;;;;;;;;;8331429;28;20053;-75
2022/01/14 10:04:31;;;;;;;14.50;7.65;;;;;;;;;;8331830;28;20057;-75
2022/01/14 10:08:35;;;;;;;16.25;7.63;;;;;;;;;;8332754;28;20049;-75
2022/01/14 10:12:39;;;;;;;16.50;9.38;;;;;;;;;;8337026;28;20068;-75
2022/01/14 10:16:43;;;;;;;17.38;9.63;;;;;;;;;;8336723;28;20053;-75
2022/01/14 10:20:47;;;;;;;16.83;8.93;;;;;;;;;;8336415;28;20099;-75
2022/01/14 10:25:00;;;;;;;19.85;7.88;;;;;;;;;;8336384;28;20178;-75
2022/01/14 10:29:06;;;;;;;14.73;7.45;;;;;;;;;;8336324;28;20102;-75
2022/01/14 10:33:11;;;;;;;15.52;8.35;;;;;;;;;;8336199;28;20132;-75
2022/01/14 10:37:15;;;;;;;13.85;7.35;;;;;;;;;;8336005;28;20046;-78
2022/01/14 10:41:19;;;;;;;14.98;8.55;;;;;;;;;;8336416;28;20049;-75
2022/01/14 10:45:27;;;;;;;12.50;7.65;;;;;;;;;;8335918;28;20045;-74
2022/01/14 10:49:34;;;;;;;19.27;8.70;;;;;;;;;;8336266;28;20503;-75
2022/01/14 10:53:39;;;;;;;21.48;9.40;;;;;;;;;;8365894;28;20496;-74
2022/01/14 10:57:49;;;;;;;18.52;9.18;;;;;;;;;;8368912;28;20041;-74
2022/01/14 11:01:54;;;;;;;17.40;8.80;;;;;;;;;;8368314;28;20045;-75
2022/01/14 11:06:15;;;;;;;19.25;9.05;;;;;;;;;;8368161;28;20064;-77
2022/01/14 11:10:24;;;;;;;21.75;10.45;;;;;;;;;;8368115;28;20045;-75
2022/01/14 11:14:27;;;;;;;19.40;9.10;;;;;;;;;;8367921;28;20045;-75
2022/01/14 11:18:32;;;;;;;20.02;9.43;;;;;;;;;;8367195;28;20061;-75
2022/01/14 11:27:14;;;;;;;13.80;7.72;;;;;;;;;;8367192;28;20048;-74
2022/01/14 11:31:27;;;;;;;18.98;10.13;;;;;;;;;;8366868;28;20098;-75
2022/01/14 11:35:34;;;;;;;17.75;9.57;;;;;;;;;;8367072;28;20040;-74
2022/01/14 11:39:38;;;;;;;18.38;9.85;;;;;;;;;;8366823;28;20063;-75
2022/01/14 11:43:51;;;;;;;17.60;8.93;;;;;;;;;;8366597;28;20045;-74
2022/01/14 11:48:01;;;;;;;21.13;10.30;;;;;;;;;;8366271;28;20044;-75
2022/01/14 11:52:09;;;;;;;16.05;7.93;;;;;;;;;;8366054;28;20495;-74
2022/01/14 11:56:46;;;;;;;15.10;7.07;;;;;;;;;;8366754;28;20053;-74
2022/01/14 12:00:48;;;;;;;13.07;7.00;;;;;;;;;;8366686;28;20048;-74
2022/01/14 12:05:02;;;;;;;19.63;9.18;;;;;;;;;;8336303;28;20168;-75
2022/01/14 12:09:06;;;;;;;20.05;9.52;;;;;;;;;;8366249;28;20131;-75
2022/01/14 12:13:36;;;;;;;15.10;7.90;;;;;;;;;;8365376;28;20049;-75
2022/01/14 12:17:41;;;;;;;18.35;9.55;;;;;;;;;;8365217;28;20102;-77
2022/01/14 12:22:01;;;;;;;20.63;9.43;;;;;;;;;;8365143;28;20128;-75
2022/01/14 12:26:16;;;;;;;18.13;8.02;;;;;;;;;;8365668;28;20080;-76
2022/01/14 12:30:29;;;;;;;17.65;9.00;;;;;;;;;;8365168;28;20045;-75
2022/01/14 12:34:44;;;;;;;18.00;8.52;;;;;;;;;;8364482;28;20044;-75
2022/01/14 12:39:12;;;;;;;23.60;9.27;;;;;;;;;;8364561;28;20112;-75
2022/01/14 12:43:17;;;;;;;18.95;9.10;;;;;;;;;;8364497;28;20045;-75
2022/01/14 12:47:25;;;;;;;20.00;10.27;;;;;;;;;;8364303;28;20393;-75
2022/01/14 12:51:29;;;;;;;18.58;9.32;;;;;;;;;;8364186;28;20405;-75
2022/01/14 12:55:36;;;;;;;28.92;11.98;;;;;;;;;;8362007;28;20095;-75
2022/01/14 12:59:42;;;;;;;16.52;8.77;;;;;;;;;;8361342;28;20044;-75
2022/01/14 13:03:45;;;;;;;21.83;9.80;;;;;;;;;;8364350;28;20049;-75
2022/01/14 13:07:52;;;;;;;28.23;14.13;;;;;;;;;;8364067;28;20048;-74
2022/01/14 13:11:58;;;;;;;16.65;7.78;;;;;;;;;;8363714;28;20102;-75
2022/01/14 13:16:06;;;;;;;23.65;9.65;;;;;;;;;;8363613;28;20045;-75
2022/01/14 13:20:11;;;;;;;21.13;11.52;;;;;;;;;;8363512;28;20056;-74
2022/01/14 13:24:21;;;;;;;18.85;8.68;;;;;;;;;;8363597;28;20048;-75
2022/01/14 13:28:23;;;;;;;18.63;7.80;;;;;;;;;;8363464;28;20041;-75
2022/01/14 13:32:36;;;;;;;16.42;8.00;;;;;;;;;;8393257;28;20051;-75
2022/01/14 13:36:43;;;;;;;19.30;8.90;;;;;;;;;;8396590;28;20087;-75
2022/01/14 13:41:02;;;;;;;17.17;8.55;;;;;;;;;;8396892;28;20048;-75
2022/01/14 13:45:21;;;;;;;15.55;7.30;;;;;;;;;;8395597;28;20044;-74
2022/01/14 13:49:50;;;;;;;15.45;8.23;;;;;;;;;;8396100;28;20068;-75
2022/01/14 13:54:12;;;;;;;14.82;8.00;;;;;;;;;;8396157;28;20385;-75
2022/01/14 13:58:38;;;;;;;15.98;7.65;;;;;;;;;;8395664;28;20664;-75
2022/01/14 14:03:15;;;;;;;17.58;7.60;;;;;;;;;;8395348;28;20044;-74
2022/01/14 14:07:27;;;;;;;15.82;7.70;;;;;;;;;;8395798;28;20127;-74
2022/01/14 14:12:10;;;;;;;17.50;9.25;;;;;;;;;;8395878;28;20048;-75
2022/01/14 14:16:34;;;;;;;17.77;8.90;;;;;;;;;;8396251;28;20506;-74
2022/01/14 14:20:47;;;;;;;16.40;8.02;;;;;;;;;;8394923;28;20074;-74
2022/01/14 14:25:16;;;;;;;35.03;16.83;;;;;;;;;;8395929;28;20052;-74
2022/01/14 14:29:33;;;;;;;26.13;16.73;;;;;;;;;;8395364;28;20127;-73
2022/01/14 14:33:56;;;;;;;51.22;31.20;;;;;;;;;;8394597;28;20511;-75
2022/01/14 14:38:06;;;;;;;30.48;15.52;;;;;;;;;;8350615;28;20095;-74
2022/01/14 14:42:20;;;;;;;16.67;8.50;;;;;;;;;;8341291;28;20703;-74
2022/01/14 14:46:35;;;;;;;24.20;12.23;;;;;;;;;;8357544;28;20076;-74
2022/01/14 14:50:53;;;;;;;16.55;10.07;;;;;;;;;;8355905;28;20044;-75
2022/01/14 14:55:11;;;;;;;20.23;10.50;;;;;;;;;;8344744;28;20178;-74
2022/01/14 14:59:29;;;;;;;22.50;12.43;;;;;;;;;;8367472;28;20045;-75
2022/01/14 15:03:32;;;;;;;23.98;13.40;;;;;;;;;;8367934;28;20056;-74
2022/01/14 15:07:37;;;;;;;22.23;9.80;;;;;;;;;;8367753;28;20045;-74
2022/01/14 15:11:41;;;;;;;57.38;21.65;;;;;;;;;;8367409;28;20131;-75
2022/01/14 15:16:22;;;;;;;47.60;22.75;;;;;;;;;;8367014;28;20048;-74
2022/01/14 15:20:29;;;;;;;65.85;24.10;;;;;;;;;;8366665;28;20390;-75
2022/01/14 15:24:32;;;;;;;99.63;34.40;;;;;;;;;;8367151;28;20235;-75
2022/01/14 15:28:35;;;;;;;93.00;34.53;;;;;;;;;;8364954;28;20077;-74
2022/01/14 15:32:40;;;;;;;73.45;28.08;;;;;;;;;;8366015;28;20049;-75
2022/01/14 15:36:44;;;;;;;22.92;12.45;;;;;;;;;;8367272;28;20469;-74
2022/01/14 15:40:47;;;;;;;134.70;43.92;;;;;;;;;;8365849;28;20102;-74
2022/01/14 15:44:50;;;;;;;36.75;20.95;;;;;;;;;;8366992;28;20468;-74
2022/01/14 15:48:55;;;;;;;24.77;13.50;;;;;;;;;;8366870;28;20049;-74
2022/01/14 15:52:58;;;;;;;54.50;20.85;;;;;;;;;;8366640;28;20491;-74
2022/01/14 15:57:01;;;;;;;113.47;38.30;;;;;;;;;;8364649;28;20048;-77
2022/01/14 16:01:05;;;;;;;49.10;18.85;;;;;;;;;;8361624;28;20179;-76
2022/01/14 16:05:12;;;;;;;173.00;66.32;;;;;;;;;;8363623;28;20056;-74
2022/01/14 16:09:15;;;;;;;155.13;55.90;;;;;;;;;;8365551;28;20124;-74
2022/01/14 16:13:20;;;;;;;70.85;24.95;;;;;;;;;;8365662;28;20041;-74
2022/01/14 16:17:23;;;;;;;159.80;44.03;;;;;;;;;;8363046;28;20084;-75
2022/01/14 16:21:28;;;;;;;104.38;34.03;;;;;;;;;;8362881;28;20067;-75
2022/01/14 16:25:31;;;;;;;150.65;43.85;;;;;;;;;;8364014;28;20116;-74
2022/01/14 16:29:48;;;;;;;80.90;28.40;;;;;;;;;;8363401;28;20040;-74
2022/01/14 16:33:52;;;;;;;76.38;30.10;;;;;;;;;;8364308;28;20435;-75
2022/01/14 16:37:57;;;;;;;82.63;27.17;;;;;;;;;;8364230;28;20056;-75
2022/01/14 16:42:04;;;;;;;41.03;18.30;;;;;;;;;;8364987;28;20079;-75
2022/01/14 16:46:07;;;;;;;139.30;41.15;;;;;;;;;;8363460;28;20094;-75
2022/01/14 16:50:11;;;;;;;40.33;16.67;;;;;;;;;;8366012;28;20049;-75
2022/01/14 16:54:24;;;;;;;35.05;18.42;;;;;;;;;;8362864;28;20068;-76
2022/01/14 16:58:28;;;;;;;304.70;94.50;;;;;;;;;;8362707;28;20493;-81
2022/01/14 17:02:37;;;;;;;70.90;27.77;;;;;;;;;;8364333;28;20053;-75
2022/01/14 17:06:41;;;;;;;176.10;54.60;;;;;;;;;;8363620;28;20048;-74
2022/01/14 17:10:49;;;;;;;93.88;35.78;;;;;;;;;;8372994;28;20127;-76
2022/01/14 17:14:56;;;;;;;80.18;35.85;;;;;;;;;;8390128;28;20068;-75
2022/01/14 17:19:00;;;;;;;47.95;23.98;;;;;;;;;;8389930;28;20439;-74
2022/01/14 17:23:04;;;;;;;58.88;28.52;;;;;;;;;;8386361;28;20510;-75
2022/01/14 17:27:10;;;;;;;137.32;58.92;;;;;;;;;;8396952;28;20044;-74
2022/01/14 17:31:13;;;;;;;84.72;37.50;;;;;;;;;;8385644;28;20140;-75
2022/01/14 17:35:17;;;;;;;116.85;34.40;;;;;;;;;;8361900;28;20045;-75
2022/01/14 17:39:20;;;;;;;84.88;26.90;;;;;;;;;;8365398;28;20127;-74
2022/01/14 17:43:25;;;;;;;148.27;40.90;;;;;;;;;;8368573;28;20064;-74
2022/01/14 17:47:30;;;;;;;176.45;48.38;;;;;;;;;;8362362;28;20459;-75
2022/01/14 17:51:33;;;;;;;75.95;29.73;;;;;;;;;;8365341;28;20262;-74
2022/01/14 17:55:36;;;;;;;49.88;22.73;;;;;;;;;;8370061;28;20148;-75
2022/01/14 17:59:41;;;;;;;38.88;17.00;;;;;;;;;;8373202;28;20081;-74
2022/01/14 18:03:43;;;;;;;41.38;19.63;;;;;;;;;;8373365;28;20140;-75
2022/01/14 18:07:47;;;;;;;38.92;16.15;;;;;;;;;;8388069;28;20386;-75
2022/01/14 18:12:03;;;;;;;76.28;32.80;;;;;;;;;;8389769;28;20520;-77
2022/01/14 18:16:08;;;;;;;54.28;21.88;;;;;;;;;;8368715;28;20416;-75
2022/01/14 18:20:12;;;;;;;22.70;11.80;;;;;;;;;;8379481;28;20569;-75
2022/01/14 18:24:14;;;;;;;32.78;14.35;;;;;;;;;;8383188;28;20466;-75
2022/01/14 18:28:17;;;;;;;22.02;10.55;;;;;;;;;;8391877;28;20541;-75
2022/01/14 18:32:22;;;;;;;32.08;12.45;;;;;;;;;;8394110;28;20048;-75
2022/01/14 18:36:25;;;;;;;42.28;16.50;;;;;;;;;;8389750;28;20117;-75
2022/01/14 18:40:31;;;;;;;44.42;21.25;;;;;;;;;;8389819;28;20048;-75
2022/01/14 18:44:35;;;;;;;20.70;10.38;;;;;;;;;;8374044;28;20037;-76
2022/01/14 18:48:40;;;;;;;24.42;10.73;;;;;;;;;;8389441;28;20083;-80
2022/01/14 18:52:43;;;;;;;21.40;10.20;;;;;;;;;;8374100;28;20041;-75
2022/01/14 18:56:47;;;;;;;25.70;10.20;;;;;;;;;;8382651;28;20086;-75
2022/01/14 19:00:50;;;;;;;16.98;7.22;;;;;;;;;;8389143;28;20045;-75
2022/01/14 19:04:55;;;;;;;18.23;7.28;;;;;;;;;;8369023;28;20519;-75
2022/01/14 19:08:58;;;;;;;25.15;8.82;;;;;;;;;;8391744;28;20072;-75
2022/01/14 19:13:02;;;;;;;18.30;7.55;;;;;;;;;;8375388;28;20059;-75
2022/01/14 19:17:06;;;;;;;20.88;9.98;;;;;;;;;;8391493;28;20068;-77
2022/01/14 19:21:29;;;;;;;17.80;7.07;;;;;;;;;;8400537;28;20484;-77
2022/01/14 19:25:54;;;;;;;26.35;8.27;;;;;;;;;;8400613;28;20055;-77
2022/01/14 19:30:11;;;;;;;20.98;10.10;;;;;;;;;;8351242;28;20132;-76
2022/01/14 19:34:43;;;;;;;18.17;6.85;;;;;;;;;;8357352;28;20128;-75
2022/01/14 19:39:20;;;;;;;28.40;12.85;;;;;;;;;;8343379;28;20041;-75
2022/01/14 19:43:30;;;;;;;24.98;10.38;;;;;;;;;;8361341;28;20067;-75
2022/01/14 19:47:55;;;;;;;27.05;13.43;;;;;;;;;;8378316;28;20045;-75
2022/01/14 19:52:16;;;;;;;20.15;8.73;;;;;;;;;;8358038;28;20455;-75
2022/01/14 19:56:23;;;;;;;26.92;9.48;;;;;;;;;;8352021;28;20049;-76
2022/01/14 20:00:44;;;;;;;30.58;9.65;;;;;;;;;;8347551;28;20083;-75
2022/01/14 20:04:52;;;;;;;32.78;10.63;;;;;;;;;;8331843;28;20087;-75
2022/01/14 20:09:05;;;;;;;22.77;8.68;;;;;;;;;;8338673;28;20060;-75
2022/01/14 20:13:34;;;;;;;24.60;7.38;;;;;;;;;;8342506;28;20150;-75
2022/01/14 20:17:38;;;;;;;27.30;7.93;;;;;;;;;;8331192;28;20053;-75
2022/01/14 20:21:44;;;;;;;25.05;7.45;;;;;;;;;;8332156;28;20048;-74
2022/01/14 20:26:03;;;;;;;20.48;7.22;;;;;;;;;;8361883;28;20090;-75
2022/01/14 20:30:26;;;;;;;27.08;6.95;;;;;;;;;;8363979;28;20045;-75
2022/01/14 20:34:45;;;;;;;25.15;6.60;;;;;;;;;;8363866;28;20064;-76
2022/01/14 20:39:05;;;;;;;29.23;7.28;;;;;;;;;;8363716;28;20091;-75
2022/01/14 20:43:25;;;;;;;23.70;6.72;;;;;;;;;;8364858;28;20045;-75
2022/01/14 20:48:12;;;;;;;21.15;6.72;;;;;;;;;;8364697;28;20052;-75
2022/01/14 20:52:18;;;;;;;25.45;6.78;;;;;;;;;;8369013;28;20127;-74
2022/01/14 20:56:21;;;;;;;24.50;6.03;;;;;;;;;;8395554;28;20044;-75
2022/01/14 21:00:25;;;;;;;35.63;7.25;;;;;;;;;;8365446;28;20041;-75
2022/01/14 21:04:30;;;;;;;29.35;6.88;;;;;;;;;;8363720;28;20044;-75
2022/01/14 21:08:33;;;;;;;34.88;8.13;;;;;;;;;;8364027;28;20154;-81
2022/01/14 21:12:36;;;;;;;24.35;7.25;;;;;;;;;;8363875;28;20049;-75
2022/01/14 21:16:38;;;;;;;26.60;6.57;;;;;;;;;;8358321;28;20036;-74
2022/01/14 21:20:48;;;;;;;25.40;7.47;;;;;;;;;;8362069;28;20056;-75
2022/01/14 21:24:52;;;;;;;36.53;7.60;;;;;;;;;;8363004;28;20049;-74
2022/01/14 21:28:56;;;;;;;25.10;6.88;;;;;;;;;;8361566;28;20090;-75
2022/01/14 21:32:59;;;;;;;29.25;7.85;;;;;;;;;;8356293;28;20099;-72
2022/01/14 21:37:04;;;;;;;26.10;7.60;;;;;;;;;;8363622;28;20048;-73
2022/01/14 21:41:07;;;;;;;25.88;8.77;;;;;;;;;;8362479;28;20492;-73
2022/01/14 21:45:12;;;;;;;23.80;7.68;;;;;;;;;;8363099;28;20041;-74
2022/01/14 21:49:18;;;;;;;23.00;8.02;;;;;;;;;;8363552;28;20045;-74
2022/01/14 21:53:27;;;;;;;28.83;8.30;;;;;;;;;;8363548;28;20131;-74
2022/01/14 21:57:31;;;;;;;25.17;7.18;;;;;;;;;;8363540;28;20045;-75
2022/01/14 22:01:39;;;;;;;25.05;7.38;;;;;;;;;;8362881;28;20072;-75
2022/01/14 22:05:46;;;;;;;30.05;8.48;;;;;;;;;;8367239;28;20049;-75
2022/01/14 22:09:59;;;;;;;29.65;8.60;;;;;;;;;;8370096;28;20404;-75
2022/01/14 22:14:10;;;;;;;29.70;8.48;;;;;;;;;;8369171;28;20546;-75
2022/01/14 22:18:16;;;;;;;27.27;8.23;;;;;;;;;;8368090;28;20065;-81
2022/01/14 22:22:19;;;;;;;30.73;7.72;;;;;;;;;;8367994;28;20045;-74
2022/01/14 22:26:23;;;;;;;28.60;7.47;;;;;;;;;;8369124;28;20045;-74
2022/01/14 22:30:26;;;;;;;34.75;7.75;;;;;;;;;;8369284;28;20045;-74
2022/01/14 22:34:29;;;;;;;29.13;7.05;;;;;;;;;;8369157;28;20464;-74
2022/01/14 22:38:33;;;;;;;35.13;8.10;;;;;;;;;;8368465;28;20052;-75
2022/01/14 22:42:37;;;;;;;28.35;6.93;;;;;;;;;;8368253;28;20532;-74
2022/01/14 22:46:42;;;;;;;31.42;7.72;;;;;;;;;;8366715;28;20041;-74
2022/01/14 22:50:46;;;;;;;30.63;8.10;;;;;;;;;;8368043;28;20088;-74
2022/01/14 22:54:48;;;;;;;36.08;7.32;;;;;;;;;;8367818;28;20049;-74
2022/01/14 22:58:52;;;;;;;29.23;6.40;;;;;;;;;;8368465;28;20041;-74
2022/01/14 23:02:56;;;;;;;26.95;6.22;;;;;;;;;;8368039;28;20053;-74
2022/01/14 23:06:59;;;;;;;26.27;5.68;;;;;;;;;;8367579;28;20040;-74
2022/01/14 23:11:02;;;;;;;18.40;5.07;;;;;;;;;;8367475;28;20065;-74
2022/01/14 23:15:08;;;;;;;25.25;5.95;;;;;;;;;;8366292;28;20041;-74
2022/01/14 23:19:10;;;;;;;20.52;5.00;;;;;;;;;;8367412;28;20084;-74
2022/01/14 23:23:13;;;;;;;19.35;5.28;;;;;;;;;;8367792;28;20045;-74
2022/01/14 23:27:19;;;;;;;23.88;5.47;;;;;;;;;;8367348;28;20037;-74
2022/01/14 23:31:23;;;;;;;25.40;5.38;;;;;;;;;;8366436;28;20122;-75
2022/01/14 23:35:25;;;;;;;19.83;7.38;;;;;;;;;;8366844;28;20041;-75
2022/01/14 23:39:29;;;;;;;18.42;5.15;;;;;;;;;;8367352;28;20041;-75
2022/01/14 23:43:48;;;;;;;15.40;5.80;;;;;;;;;;8367474;28;20107;-74
2022/01/14 23:47:53;;;;;;;15.57;5.00;;;;;;;;;;8365498;28;20052;-74
2022/01/14 23:51:57;;;;;;;19.38;5.35;;;;;;;;;;8366493;28;20052;-74
2022/01/14 23:55:59;;;;;;;23.73;5.03;;;;;;;;;;8365119;28;20049;-73
